sensor_id;sensor_type;location;lat;lon;timestamp;P1;durP1;ratioP1;P2;durP2;ratioP2
45792;SDS011;31495;42.740;22.908;2022-10-23T00:00:19;21.83;;;11.07;;
45792;SDS011;31495;42.740;22.908;2022-10-23T00:01:20;19.33;;;10.70;;
45792;SDS011;31495;42.740;22.908;2022-10-23T00:02:21;16.40;;;10.38;;
45792;SDS011;31495;42.740;22.908;2022-10-23T00:03:21;18.05;;;10.48;;
45792;SDS011;31495;42.740;22.908;2022-10-23T00:04:21;15.00;;;8.93;;
45792;SDS011;31495;42.740;22.908;2022-10-23T00:05:21;18.00;;;10.07;;
45792;SDS011;31495;42.740;22.908;2022-10-23T00:06:22;18.67;;;10.60;;
45792;SDS011;31495;42.740;22.908;2022-10-23T00:07:22;17.88;;;10.15;;
45792;SDS011;31495;42.740;22.908;2022-10-23T00:08:21;19.55;;;9.65;;
45792;SDS011;31495;42.740;22.908;2022-10-23T00:09:22;15.32;;;8.63;;
45792;SDS011;31495;42.740;22.908;2022-10-23T00:10:23;20.02;;;9.13;;
45792;SDS011;31495;42.740;22.908;2022-10-23T00:11:25;12.20;;;7.18;;
45792;SDS011;31495;42.740;22.908;2022-10-23T00:12:26;17.23;;;8.18;;
45792;SDS011;31495;42.740;22.908;2022-10-23T00:13:26;18.92;;;8.60;;
45792;SDS011;31495;42.740;22.908;2022-10-23T00:14:25;16.55;;;9.15;;
45792;SDS011;31495;42.740;22.908;2022-10-23T00:15:25;19.35;;;11.88;;
45792;SDS011;31495;42.740;22.908;2022-10-23T00:16:26;21.30;;;11.90;;
45792;SDS011;31495;42.740;22.908;2022-10-23T00:17:25;19.67;;;11.40;;
45792;SDS011;31495;42.740;22.908;2022-10-23T00:18:25;21.95;;;11.40;;
45792;SDS011;31495;42.740;22.908;2022-10-23T00:19:24;19.45;;;11.65;;
45792;SDS011;31495;42.740;22.908;2022-10-23T00:20:23;19.38;;;11.27;;
45792;SDS011;31495;42.740;22.908;2022-10-23T00:21:24;22.95;;;12.23;;
45792;SDS011;31495;42.740;22.908;2022-10-23T00:22:24;19.45;;;11.02;;
45792;SDS011;31495;42.740;22.908;2022-10-23T00:23:23;18.70;;;10.68;;
45792;SDS011;31495;42.740;22.908;2022-10-23T00:24:23;21.02;;;12.20;;
45792;SDS011;31495;42.740;22.908;2022-10-23T00:25:22;20.48;;;11.55;;
45792;SDS011;31495;42.740;22.908;2022-10-23T00:26:21;21.85;;;11.68;;
45792;SDS011;31495;42.740;22.908;2022-10-23T00:27:21;20.92;;;11.73;;
45792;SDS011;31495;42.740;22.908;2022-10-23T00:28:20;17.02;;;9.85;;
45792;SDS011;31495;42.740;22.908;2022-10-23T00:29:20;24.17;;;10.88;;
45792;SDS011;31495;42.740;22.908;2022-10-23T00:30:19;17.08;;;9.90;;
45792;SDS011;31495;42.740;22.908;2022-10-23T00:31:19;15.02;;;9.88;;
45792;SDS011;31495;42.740;22.908;2022-10-23T00:32:20;16.55;;;9.70;;
45792;SDS011;31495;42.740;22.908;2022-10-23T00:33:19;14.43;;;8.93;;
45792;SDS011;31495;42.740;22.908;2022-10-23T00:34:18;13.45;;;7.97;;
45792;SDS011;31495;42.740;22.908;2022-10-23T00:35:18;16.65;;;9.82;;
45792;SDS011;31495;42.740;22.908;2022-10-23T00:36:18;17.15;;;8.40;;
45792;SDS011;31495;42.740;22.908;2022-10-23T00:37:19;12.88;;;8.05;;
45792;SDS011;31495;42.740;22.908;2022-10-23T00:38:18;13.15;;;8.20;;
45792;SDS011;31495;42.740;22.908;2022-10-23T00:39:18;14.88;;;9.07;;
45792;SDS011;31495;42.740;22.908;2022-10-23T00:40:17;18.88;;;10.25;;
45792;SDS011;31495;42.740;22.908;2022-10-23T00:41:19;17.20;;;8.07;;
45792;SDS011;31495;42.740;22.908;2022-10-23T00:42:20;13.68;;;8.18;;
45792;SDS011;31495;42.740;22.908;2022-10-23T00:43:25;12.95;;;7.32;;
45792;SDS011;31495;42.740;22.908;2022-10-23T00:45:27;13.18;;;8.68;;
45792;SDS011;31495;42.740;22.908;2022-10-23T00:46:29;14.65;;;8.43;;
45792;SDS011;31495;42.740;22.908;2022-10-23T00:47:29;16.08;;;7.75;;
45792;SDS011;31495;42.740;22.908;2022-10-23T00:48:29;11.02;;;7.35;;
45792;SDS011;31495;42.740;22.908;2022-10-23T00:49:28;15.90;;;8.05;;
45792;SDS011;31495;42.740;22.908;2022-10-23T00:50:29;11.85;;;7.25;;
45792;SDS011;31495;42.740;22.908;2022-10-23T00:51:32;14.80;;;8.40;;
45792;SDS011;31495;42.740;22.908;2022-10-23T00:52:35;14.93;;;7.93;;
45792;SDS011;31495;42.740;22.908;2022-10-23T00:53:43;10.90;;;7.40;;
45792;SDS011;31495;42.740;22.908;2022-10-23T00:54:44;16.27;;;9.00;;
45792;SDS011;31495;42.740;22.908;2022-10-23T00:55:44;14.60;;;8.23;;
45792;SDS011;31495;42.740;22.908;2022-10-23T00:56:46;14.27;;;8.02;;
45792;SDS011;31495;42.740;22.908;2022-10-23T00:57:47;14.80;;;8.00;;
45792;SDS011;31495;42.740;22.908;2022-10-23T00:58:48;14.07;;;8.38;;
45792;SDS011;31495;42.740;22.908;2022-10-23T00:59:47;16.38;;;9.32;;
45792;SDS011;31495;42.740;22.908;2022-10-23T01:00:48;14.88;;;7.80;;
45792;SDS011;31495;42.740;22.908;2022-10-23T01:01:50;12.70;;;8.20;;
45792;SDS011;31495;42.740;22.908;2022-10-23T01:02:50;15.95;;;9.38;;
45792;SDS011;31495;42.740;22.908;2022-10-23T01:03:50;17.08;;;9.13;;
45792;SDS011;31495;42.740;22.908;2022-10-23T01:04:50;18.63;;;9.07;;
45792;SDS011;31495;42.740;22.908;2022-10-23T01:07:01;18.35;;;9.75;;
45792;SDS011;31495;42.740;22.908;2022-10-23T01:08:11;15.45;;;8.52;;
45792;SDS011;31495;42.740;22.908;2022-10-23T01:09:30;17.00;;;7.88;;
45792;SDS011;31495;42.740;22.908;2022-10-23T01:13:16;15.93;;;7.57;;
45792;SDS011;31495;42.740;22.908;2022-10-23T01:14:54;14.98;;;7.97;;
45792;SDS011;31495;42.740;22.908;2022-10-23T01:16:07;16.08;;;7.90;;
45792;SDS011;31495;42.740;22.908;2022-10-23T01:17:28;15.85;;;8.48;;
45792;SDS011;31495;42.740;22.908;2022-10-23T01:20:05;18.13;;;8.80;;
45792;SDS011;31495;42.740;22.908;2022-10-23T01:27:35;14.40;;;7.30;;
45792;SDS011;31495;42.740;22.908;2022-10-23T01:30:52;16.42;;;7.63;;
45792;SDS011;31495;42.740;22.908;2022-10-23T01:33:06;14.98;;;7.72;;
45792;SDS011;31495;42.740;22.908;2022-10-23T01:34:12;12.07;;;8.05;;
45792;SDS011;31495;42.740;22.908;2022-10-23T01:35:21;12.23;;;6.65;;
45792;SDS011;31495;42.740;22.908;2022-10-23T01:36:25;12.45;;;6.63;;
45792;SDS011;31495;42.740;22.908;2022-10-23T01:37:33;13.55;;;7.15;;
45792;SDS011;31495;42.740;22.908;2022-10-23T01:38:47;11.80;;;7.18;;
45792;SDS011;31495;42.740;22.908;2022-10-23T01:39:54;17.83;;;7.32;;
45792;SDS011;31495;42.740;22.908;2022-10-23T01:41:00;18.05;;;8.73;;
45792;SDS011;31495;42.740;22.908;2022-10-23T01:43:23;14.90;;;7.32;;
45792;SDS011;31495;42.740;22.908;2022-10-23T01:44:32;17.50;;;9.23;;
45792;SDS011;31495;42.740;22.908;2022-10-23T01:45:47;14.30;;;8.52;;
45792;SDS011;31495;42.740;22.908;2022-10-23T01:46:51;14.45;;;8.80;;
45792;SDS011;31495;42.740;22.908;2022-10-23T01:48:53;17.13;;;9.05;;
45792;SDS011;31495;42.740;22.908;2022-10-23T01:49:55;15.75;;;9.10;;
45792;SDS011;31495;42.740;22.908;2022-10-23T01:50:58;16.00;;;9.10;;
45792;SDS011;31495;42.740;22.908;2022-10-23T01:52:01;16.58;;;9.20;;
45792;SDS011;31495;42.740;22.908;2022-10-23T01:53:04;14.55;;;8.73;;
45792;SDS011;31495;42.740;22.908;2022-10-23T01:54:05;20.23;;;10.82;;
45792;SDS011;31495;42.740;22.908;2022-10-23T01:55:08;18.50;;;10.73;;
45792;SDS011;31495;42.740;22.908;2022-10-23T01:56:11;18.83;;;11.13;;
45792;SDS011;31495;42.740;22.908;2022-10-23T01:57:16;20.67;;;10.10;;
45792;SDS011;31495;42.740;22.908;2022-10-23T01:58:18;15.88;;;9.02;;
45792;SDS011;31495;42.740;22.908;2022-10-23T01:59:24;19.33;;;8.80;;
45792;SDS011;31495;42.740;22.908;2022-10-23T02:00:28;20.58;;;9.25;;
45792;SDS011;31495;42.740;22.908;2022-10-23T02:01:29;13.32;;;8.27;;
45792;SDS011;31495;42.740;22.908;2022-10-23T02:02:31;15.68;;;9.23;;
45792;SDS011;31495;42.740;22.908;2022-10-23T02:03:32;15.60;;;8.35;;
45792;SDS011;31495;42.740;22.908;2022-10-23T02:04:37;16.52;;;9.13;;
45792;SDS011;31495;42.740;22.908;2022-10-23T02:05:40;11.95;;;8.10;;
45792;SDS011;31495;42.740;22.908;2022-10-23T02:06:41;13.95;;;8.07;;
45792;SDS011;31495;42.740;22.908;2022-10-23T02:07:41;13.73;;;8.35;;
45792;SDS011;31495;42.740;22.908;2022-10-23T02:08:41;14.48;;;8.00;;
45792;SDS011;31495;42.740;22.908;2022-10-23T02:09:41;14.63;;;7.97;;
45792;SDS011;31495;42.740;22.908;2022-10-23T02:10:43;14.23;;;8.35;;
45792;SDS011;31495;42.740;22.908;2022-10-23T02:11:49;13.60;;;7.32;;
45792;SDS011;31495;42.740;22.908;2022-10-23T02:12:58;15.98;;;7.50;;
45792;SDS011;31495;42.740;22.908;2022-10-23T02:14:01;12.13;;;7.40;;
45792;SDS011;31495;42.740;22.908;2022-10-23T02:15:04;13.82;;;8.07;;
45792;SDS011;31495;42.740;22.908;2022-10-23T02:16:05;14.75;;;8.13;;
45792;SDS011;31495;42.740;22.908;2022-10-23T02:17:20;14.85;;;8.48;;
45792;SDS011;31495;42.740;22.908;2022-10-23T02:18:45;13.02;;;7.30;;
45792;SDS011;31495;42.740;22.908;2022-10-23T02:20:16;25.48;;;8.25;;
45792;SDS011;31495;42.740;22.908;2022-10-23T02:21:18;15.10;;;7.38;;
45792;SDS011;31495;42.740;22.908;2022-10-23T02:22:41;15.93;;;7.57;;
45792;SDS011;31495;42.740;22.908;2022-10-23T02:23:58;16.10;;;8.18;;
45792;SDS011;31495;42.740;22.908;2022-10-23T02:26:33;13.48;;;7.20;;
45792;SDS011;31495;42.740;22.908;2022-10-23T02:27:41;10.43;;;7.00;;
45792;SDS011;31495;42.740;22.908;2022-10-23T02:28:50;11.75;;;6.82;;
45792;SDS011;31495;42.740;22.908;2022-10-23T02:30:05;13.82;;;7.25;;
45792;SDS011;31495;42.740;22.908;2022-10-23T02:31:08;10.75;;;6.80;;
45792;SDS011;31495;42.740;22.908;2022-10-23T02:32:11;13.70;;;7.32;;
45792;SDS011;31495;42.740;22.908;2022-10-23T02:33:13;16.77;;;7.93;;
45792;SDS011;31495;42.740;22.908;2022-10-23T02:34:14;12.63;;;6.88;;
45792;SDS011;31495;42.740;22.908;2022-10-23T02:35:15;14.10;;;7.57;;
45792;SDS011;31495;42.740;22.908;2022-10-23T02:37:16;18.60;;;8.55;;
45792;SDS011;31495;42.740;22.908;2022-10-23T02:38:25;14.57;;;8.50;;
45792;SDS011;31495;42.740;22.908;2022-10-23T02:39:44;16.80;;;7.53;;
45792;SDS011;31495;42.740;22.908;2022-10-23T02:40:43;14.93;;;7.88;;
45792;SDS011;31495;42.740;22.908;2022-10-23T02:41:46;15.63;;;8.32;;
45792;SDS011;31495;42.740;22.908;2022-10-23T02:45:43;22.17;;;9.38;;
45792;SDS011;31495;42.740;22.908;2022-10-23T02:48:11;16.38;;;8.15;;
45792;SDS011;31495;42.740;22.908;2022-10-23T02:49:18;15.48;;;8.38;;
45792;SDS011;31495;42.740;22.908;2022-10-23T02:51:51;14.07;;;7.20;;
45792;SDS011;31495;42.740;22.908;2022-10-23T02:53:15;16.20;;;8.27;;
45792;SDS011;31495;42.740;22.908;2022-10-23T02:54:38;13.95;;;7.65;;
45792;SDS011;31495;42.740;22.908;2022-10-23T02:55:57;17.83;;;7.85;;
45792;SDS011;31495;42.740;22.908;2022-10-23T02:57:00;12.00;;;7.28;;
45792;SDS011;31495;42.740;22.908;2022-10-23T02:58:21;17.33;;;7.38;;
45792;SDS011;31495;42.740;22.908;2022-10-23T03:00:36;13.32;;;6.90;;
45792;SDS011;31495;42.740;22.908;2022-10-23T03:01:43;11.90;;;7.20;;
45792;SDS011;31495;42.740;22.908;2022-10-23T03:02:54;13.57;;;7.90;;
45792;SDS011;31495;42.740;22.908;2022-10-23T03:03:57;15.05;;;7.57;;
45792;SDS011;31495;42.740;22.908;2022-10-23T03:05:00;12.48;;;7.28;;
45792;SDS011;31495;42.740;22.908;2022-10-23T03:06:03;13.20;;;7.32;;
45792;SDS011;31495;42.740;22.908;2022-10-23T03:07:03;14.20;;;7.75;;
45792;SDS011;31495;42.740;22.908;2022-10-23T03:08:03;16.23;;;8.30;;
45792;SDS011;31495;42.740;22.908;2022-10-23T03:09:06;15.25;;;7.00;;
45792;SDS011;31495;42.740;22.908;2022-10-23T03:11:07;19.23;;;8.93;;
45792;SDS011;31495;42.740;22.908;2022-10-23T03:12:06;15.57;;;8.90;;
45792;SDS011;31495;42.740;22.908;2022-10-23T03:13:06;17.50;;;9.65;;
45792;SDS011;31495;42.740;22.908;2022-10-23T03:14:06;14.40;;;7.85;;
45792;SDS011;31495;42.740;22.908;2022-10-23T03:15:06;13.50;;;7.22;;
45792;SDS011;31495;42.740;22.908;2022-10-23T03:16:06;14.77;;;7.60;;
45792;SDS011;31495;42.740;22.908;2022-10-23T03:17:06;17.50;;;7.50;;
45792;SDS011;31495;42.740;22.908;2022-10-23T03:18:05;15.30;;;7.95;;
45792;SDS011;31495;42.740;22.908;2022-10-23T03:19:04;13.35;;;8.10;;
45792;SDS011;31495;42.740;22.908;2022-10-23T03:20:04;13.18;;;8.05;;
45792;SDS011;31495;42.740;22.908;2022-10-23T03:21:05;12.27;;;6.97;;
45792;SDS011;31495;42.740;22.908;2022-10-23T03:22:04;19.80;;;7.65;;
45792;SDS011;31495;42.740;22.908;2022-10-23T03:23:03;17.02;;;7.60;;
45792;SDS011;31495;42.740;22.908;2022-10-23T03:24:03;25.70;;;8.77;;
45792;SDS011;31495;42.740;22.908;2022-10-23T03:25:03;16.42;;;7.93;;
45792;SDS011;31495;42.740;22.908;2022-10-23T03:26:03;13.88;;;8.43;;
45792;SDS011;31495;42.740;22.908;2022-10-23T03:27:03;15.10;;;8.30;;
45792;SDS011;31495;42.740;22.908;2022-10-23T03:28:02;14.02;;;7.93;;
45792;SDS011;31495;42.740;22.908;2022-10-23T03:29:02;12.95;;;7.88;;
45792;SDS011;31495;42.740;22.908;2022-10-23T03:30:01;13.70;;;8.20;;
45792;SDS011;31495;42.740;22.908;2022-10-23T03:31:02;20.42;;;9.15;;
45792;SDS011;31495;42.740;22.908;2022-10-23T03:32:02;13.55;;;8.60;;
45792;SDS011;31495;42.740;22.908;2022-10-23T03:33:02;14.93;;;7.60;;
45792;SDS011;31495;42.740;22.908;2022-10-23T03:34:02;17.70;;;8.98;;
45792;SDS011;31495;42.740;22.908;2022-10-23T03:35:08;11.40;;;6.65;;
45792;SDS011;31495;42.740;22.908;2022-10-23T03:36:07;12.40;;;7.95;;
45792;SDS011;31495;42.740;22.908;2022-10-23T03:37:07;12.30;;;7.50;;
45792;SDS011;31495;42.740;22.908;2022-10-23T03:38:06;11.48;;;7.25;;
45792;SDS011;31495;42.740;22.908;2022-10-23T03:39:06;14.80;;;6.72;;
45792;SDS011;31495;42.740;22.908;2022-10-23T03:40:05;14.10;;;8.38;;
45792;SDS011;31495;42.740;22.908;2022-10-23T03:41:05;12.07;;;7.25;;
45792;SDS011;31495;42.740;22.908;2022-10-23T03:42:05;12.60;;;7.72;;
45792;SDS011;31495;42.740;22.908;2022-10-23T03:43:04;14.43;;;7.57;;
45792;SDS011;31495;42.740;22.908;2022-10-23T03:44:04;14.30;;;7.82;;
45792;SDS011;31495;42.740;22.908;2022-10-23T03:45:04;16.45;;;9.15;;
45792;SDS011;31495;42.740;22.908;2022-10-23T03:46:04;19.70;;;10.15;;
45792;SDS011;31495;42.740;22.908;2022-10-23T03:47:07;17.58;;;9.93;;
45792;SDS011;31495;42.740;22.908;2022-10-23T03:48:08;16.90;;;9.90;;
45792;SDS011;31495;42.740;22.908;2022-10-23T03:49:07;19.52;;;10.18;;
45792;SDS011;31495;42.740;22.908;2022-10-23T03:50:07;18.60;;;10.95;;
45792;SDS011;31495;42.740;22.908;2022-10-23T03:51:07;16.15;;;9.55;;
45792;SDS011;31495;42.740;22.908;2022-10-23T03:52:07;17.48;;;10.38;;
45792;SDS011;31495;42.740;22.908;2022-10-23T03:53:06;16.17;;;8.68;;
45792;SDS011;31495;42.740;22.908;2022-10-23T03:54:09;18.60;;;9.55;;
45792;SDS011;31495;42.740;22.908;2022-10-23T03:55:09;16.75;;;10.70;;
45792;SDS011;31495;42.740;22.908;2022-10-23T03:56:09;16.65;;;9.35;;
45792;SDS011;31495;42.740;22.908;2022-10-23T03:57:08;16.73;;;9.10;;
45792;SDS011;31495;42.740;22.908;2022-10-23T03:58:07;17.58;;;9.75;;
45792;SDS011;31495;42.740;22.908;2022-10-23T03:59:07;19.15;;;9.80;;
45792;SDS011;31495;42.740;22.908;2022-10-23T04:00:07;16.42;;;8.55;;
45792;SDS011;31495;42.740;22.908;2022-10-23T04:01:07;14.68;;;8.40;;
45792;SDS011;31495;42.740;22.908;2022-10-23T04:02:07;21.58;;;9.77;;
45792;SDS011;31495;42.740;22.908;2022-10-23T04:03:06;13.27;;;8.65;;
45792;SDS011;31495;42.740;22.908;2022-10-23T04:04:06;20.83;;;9.85;;
45792;SDS011;31495;42.740;22.908;2022-10-23T04:05:05;19.75;;;11.27;;
45792;SDS011;31495;42.740;22.908;2022-10-23T04:06:05;28.30;;;11.00;;
45792;SDS011;31495;42.740;22.908;2022-10-23T04:07:05;19.38;;;10.57;;
45792;SDS011;31495;42.740;22.908;2022-10-23T04:08:04;18.20;;;11.23;;
45792;SDS011;31495;42.740;22.908;2022-10-23T04:09:04;23.40;;;10.82;;
45792;SDS011;31495;42.740;22.908;2022-10-23T04:10:04;21.63;;;11.65;;
45792;SDS011;31495;42.740;22.908;2022-10-23T04:11:04;22.67;;;11.27;;
45792;SDS011;31495;42.740;22.908;2022-10-23T04:12:04;16.02;;;10.35;;
45792;SDS011;31495;42.740;22.908;2022-10-23T04:13:04;16.98;;;9.57;;
45792;SDS011;31495;42.740;22.908;2022-10-23T04:14:03;14.80;;;9.27;;
45792;SDS011;31495;42.740;22.908;2022-10-23T04:15:02;19.33;;;10.05;;
45792;SDS011;31495;42.740;22.908;2022-10-23T04:16:02;18.30;;;9.63;;
45792;SDS011;31495;42.740;22.908;2022-10-23T04:17:02;15.52;;;9.10;;
45792;SDS011;31495;42.740;22.908;2022-10-23T04:18:02;19.25;;;9.40;;
45792;SDS011;31495;42.740;22.908;2022-10-23T04:19:02;15.27;;;9.60;;
45792;SDS011;31495;42.740;22.908;2022-10-23T04:20:01;17.92;;;10.20;;
45792;SDS011;31495;42.740;22.908;2022-10-23T04:21:02;19.35;;;10.13;;
45792;SDS011;31495;42.740;22.908;2022-10-23T04:22:01;16.80;;;10.52;;
45792;SDS011;31495;42.740;22.908;2022-10-23T04:23:01;17.77;;;10.57;;
45792;SDS011;31495;42.740;22.908;2022-10-23T04:24:00;18.33;;;10.15;;
45792;SDS011;31495;42.740;22.908;2022-10-23T04:25:00;21.73;;;11.23;;
45792;SDS011;31495;42.740;22.908;2022-10-23T04:25:59;22.85;;;10.93;;
45792;SDS011;31495;42.740;22.908;2022-10-23T04:26:59;17.30;;;10.20;;
45792;SDS011;31495;42.740;22.908;2022-10-23T04:27:58;18.00;;;10.10;;
45792;SDS011;31495;42.740;22.908;2022-10-23T04:28:57;16.38;;;10.20;;
45792;SDS011;31495;42.740;22.908;2022-10-23T04:29:57;19.70;;;10.07;;
45792;SDS011;31495;42.740;22.908;2022-10-23T04:30:56;17.58;;;9.70;;
45792;SDS011;31495;42.740;22.908;2022-10-23T04:31:55;16.55;;;10.88;;
45792;SDS011;31495;42.740;22.908;2022-10-23T04:32:55;20.88;;;11.18;;
45792;SDS011;31495;42.740;22.908;2022-10-23T04:33:54;22.33;;;11.15;;
45792;SDS011;31495;42.740;22.908;2022-10-23T04:34:54;23.17;;;10.93;;
45792;SDS011;31495;42.740;22.908;2022-10-23T04:35:53;20.92;;;11.10;;
45792;SDS011;31495;42.740;22.908;2022-10-23T04:36:53;24.48;;;11.10;;
45792;SDS011;31495;42.740;22.908;2022-10-23T04:37:52;19.98;;;9.82;;
45792;SDS011;31495;42.740;22.908;2022-10-23T04:38:52;20.55;;;12.35;;
45792;SDS011;31495;42.740;22.908;2022-10-23T04:39:51;18.88;;;10.07;;
45792;SDS011;31495;42.740;22.908;2022-10-23T04:40:50;21.40;;;10.98;;
45792;SDS011;31495;42.740;22.908;2022-10-23T04:41:50;22.13;;;9.30;;
45792;SDS011;31495;42.740;22.908;2022-10-23T04:42:49;18.92;;;10.65;;
45792;SDS011;31495;42.740;22.908;2022-10-23T04:43:49;27.27;;;11.40;;
45792;SDS011;31495;42.740;22.908;2022-10-23T04:44:48;17.20;;;10.40;;
45792;SDS011;31495;42.740;22.908;2022-10-23T04:45:48;19.50;;;10.35;;
45792;SDS011;31495;42.740;22.908;2022-10-23T04:46:48;26.40;;;11.48;;
45792;SDS011;31495;42.740;22.908;2022-10-23T04:47:48;15.93;;;10.30;;
45792;SDS011;31495;42.740;22.908;2022-10-23T04:48:47;18.67;;;11.27;;
45792;SDS011;31495;42.740;22.908;2022-10-23T04:49:46;21.92;;;11.18;;
45792;SDS011;31495;42.740;22.908;2022-10-23T04:50:53;19.13;;;10.07;;
45792;SDS011;31495;42.740;22.908;2022-10-23T04:51:59;18.85;;;10.25;;
45792;SDS011;31495;42.740;22.908;2022-10-23T04:52:59;18.45;;;9.45;;
45792;SDS011;31495;42.740;22.908;2022-10-23T04:53:58;24.27;;;10.90;;
45792;SDS011;31495;42.740;22.908;2022-10-23T04:54:57;24.67;;;14.10;;
45792;SDS011;31495;42.740;22.908;2022-10-23T04:55:57;20.02;;;11.85;;
45792;SDS011;31495;42.740;22.908;2022-10-23T04:56:57;19.67;;;10.63;;
45792;SDS011;31495;42.740;22.908;2022-10-23T04:57:57;17.35;;;11.18;;
45792;SDS011;31495;42.740;22.908;2022-10-23T04:58:56;20.85;;;11.32;;
45792;SDS011;31495;42.740;22.908;2022-10-23T04:59:55;23.23;;;11.52;;
45792;SDS011;31495;42.740;22.908;2022-10-23T05:00:55;30.00;;;13.27;;
45792;SDS011;31495;42.740;22.908;2022-10-23T05:01:55;30.13;;;14.63;;
45792;SDS011;31495;42.740;22.908;2022-10-23T05:02:54;26.58;;;14.15;;
45792;SDS011;31495;42.740;22.908;2022-10-23T05:03:54;32.22;;;20.13;;
45792;SDS011;31495;42.740;22.908;2022-10-23T05:04:54;28.58;;;17.27;;
45792;SDS011;31495;42.740;22.908;2022-10-23T05:05:54;28.58;;;16.92;;
45792;SDS011;31495;42.740;22.908;2022-10-23T05:06:54;32.85;;;18.80;;
45792;SDS011;31495;42.740;22.908;2022-10-23T05:07:54;40.92;;;23.02;;
45792;SDS011;31495;42.740;22.908;2022-10-23T05:08:53;30.58;;;20.58;;
45792;SDS011;31495;42.740;22.908;2022-10-23T05:09:54;35.38;;;22.23;;
45792;SDS011;31495;42.740;22.908;2022-10-23T05:10:53;35.08;;;22.35;;
45792;SDS011;31495;42.740;22.908;2022-10-23T05:11:53;34.20;;;21.15;;
45792;SDS011;31495;42.740;22.908;2022-10-23T05:12:52;30.27;;;20.13;;
45792;SDS011;31495;42.740;22.908;2022-10-23T05:13:52;28.35;;;18.50;;
45792;SDS011;31495;42.740;22.908;2022-10-23T05:14:51;34.05;;;20.25;;
45792;SDS011;31495;42.740;22.908;2022-10-23T05:15:51;32.30;;;19.13;;
45792;SDS011;31495;42.740;22.908;2022-10-23T05:16:57;36.40;;;20.00;;
45792;SDS011;31495;42.740;22.908;2022-10-23T05:17:59;34.15;;;18.40;;
45792;SDS011;31495;42.740;22.908;2022-10-23T05:19:06;30.88;;;17.33;;
45792;SDS011;31495;42.740;22.908;2022-10-23T05:20:13;38.22;;;17.60;;
45792;SDS011;31495;42.740;22.908;2022-10-23T05:21:21;35.25;;;16.52;;
45792;SDS011;31495;42.740;22.908;2022-10-23T05:22:24;25.15;;;13.32;;
45792;SDS011;31495;42.740;22.908;2022-10-23T05:23:28;26.15;;;15.10;;
45792;SDS011;31495;42.740;22.908;2022-10-23T05:24:31;27.10;;;16.02;;
45792;SDS011;31495;42.740;22.908;2022-10-23T05:25:30;23.77;;;14.30;;
45792;SDS011;31495;42.740;22.908;2022-10-23T05:26:30;23.17;;;14.20;;
45792;SDS011;31495;42.740;22.908;2022-10-23T05:27:30;59.83;;;34.15;;
45792;SDS011;31495;42.740;22.908;2022-10-23T05:28:29;45.15;;;27.17;;
45792;SDS011;31495;42.740;22.908;2022-10-23T05:29:29;58.58;;;36.40;;
45792;SDS011;31495;42.740;22.908;2022-10-23T05:30:28;59.60;;;36.80;;
45792;SDS011;31495;42.740;22.908;2022-10-23T05:31:31;45.67;;;25.20;;
45792;SDS011;31495;42.740;22.908;2022-10-23T05:32:33;47.88;;;28.33;;
45792;SDS011;31495;42.740;22.908;2022-10-23T05:33:33;41.55;;;24.42;;
45792;SDS011;31495;42.740;22.908;2022-10-23T05:34:34;40.92;;;24.05;;
45792;SDS011;31495;42.740;22.908;2022-10-23T05:35:36;38.20;;;21.83;;
45792;SDS011;31495;42.740;22.908;2022-10-23T05:36:37;34.95;;;20.05;;
45792;SDS011;31495;42.740;22.908;2022-10-23T05:37:37;40.20;;;20.35;;
45792;SDS011;31495;42.740;22.908;2022-10-23T05:38:39;37.20;;;20.52;;
45792;SDS011;31495;42.740;22.908;2022-10-23T05:39:39;34.75;;;18.67;;
45792;SDS011;31495;42.740;22.908;2022-10-23T05:40:39;37.22;;;21.05;;
45792;SDS011;31495;42.740;22.908;2022-10-23T05:41:38;36.80;;;20.25;;
45792;SDS011;31495;42.740;22.908;2022-10-23T05:42:37;38.45;;;21.67;;
45792;SDS011;31495;42.740;22.908;2022-10-23T05:43:37;42.15;;;21.48;;
45792;SDS011;31495;42.740;22.908;2022-10-23T05:44:36;32.17;;;20.02;;
45792;SDS011;31495;42.740;22.908;2022-10-23T05:45:36;35.05;;;18.17;;
45792;SDS011;31495;42.740;22.908;2022-10-23T05:46:39;33.83;;;18.92;;
45792;SDS011;31495;42.740;22.908;2022-10-23T05:47:42;36.92;;;19.90;;
45792;SDS011;31495;42.740;22.908;2022-10-23T05:48:42;34.42;;;18.90;;
45792;SDS011;31495;42.740;22.908;2022-10-23T05:49:41;38.80;;;21.50;;
45792;SDS011;31495;42.740;22.908;2022-10-23T05:50:41;42.83;;;25.25;;
45792;SDS011;31495;42.740;22.908;2022-10-23T05:51:40;39.38;;;23.88;;
45792;SDS011;31495;42.740;22.908;2022-10-23T05:52:40;39.83;;;22.92;;
45792;SDS011;31495;42.740;22.908;2022-10-23T05:53:39;43.95;;;23.65;;
45792;SDS011;31495;42.740;22.908;2022-10-23T05:54:39;46.55;;;24.48;;
45792;SDS011;31495;42.740;22.908;2022-10-23T05:55:38;38.00;;;21.88;;
45792;SDS011;31495;42.740;22.908;2022-10-23T05:56:38;42.90;;;23.60;;
45792;SDS011;31495;42.740;22.908;2022-10-23T05:57:41;45.55;;;22.10;;
45792;SDS011;31495;42.740;22.908;2022-10-23T05:58:41;44.10;;;25.17;;
45792;SDS011;31495;42.740;22.908;2022-10-23T05:59:41;78.13;;;46.17;;
45792;SDS011;31495;42.740;22.908;2022-10-23T06:00:40;53.15;;;30.88;;
45792;SDS011;31495;42.740;22.908;2022-10-23T06:01:40;44.95;;;26.40;;
45792;SDS011;31495;42.740;22.908;2022-10-23T06:02:39;50.35;;;27.80;;
45792;SDS011;31495;42.740;22.908;2022-10-23T06:03:39;50.65;;;29.30;;
45792;SDS011;31495;42.740;22.908;2022-10-23T06:04:38;41.28;;;22.98;;
45792;SDS011;31495;42.740;22.908;2022-10-23T06:05:38;40.42;;;23.38;;
45792;SDS011;31495;42.740;22.908;2022-10-23T06:06:37;38.15;;;22.83;;
45792;SDS011;31495;42.740;22.908;2022-10-23T06:07:37;42.70;;;22.20;;
45792;SDS011;31495;42.740;22.908;2022-10-23T06:08:37;32.45;;;19.25;;
45792;SDS011;31495;42.740;22.908;2022-10-23T06:09:36;37.13;;;21.45;;
45792;SDS011;31495;42.740;22.908;2022-10-23T06:10:36;37.33;;;20.50;;
45792;SDS011;31495;42.740;22.908;2022-10-23T06:11:35;34.85;;;19.13;;
45792;SDS011;31495;42.740;22.908;2022-10-23T06:12:35;33.60;;;18.60;;
45792;SDS011;31495;42.740;22.908;2022-10-23T06:13:34;34.40;;;18.92;;
45792;SDS011;31495;42.740;22.908;2022-10-23T06:14:34;28.70;;;14.85;;
45792;SDS011;31495;42.740;22.908;2022-10-23T06:15:34;28.98;;;15.50;;
45792;SDS011;31495;42.740;22.908;2022-10-23T06:16:34;23.80;;;14.70;;
45792;SDS011;31495;42.740;22.908;2022-10-23T06:17:34;24.83;;;14.68;;
45792;SDS011;31495;42.740;22.908;2022-10-23T06:18:34;22.00;;;13.25;;
45792;SDS011;31495;42.740;22.908;2022-10-23T06:19:33;27.35;;;12.35;;
45792;SDS011;31495;42.740;22.908;2022-10-23T06:20:39;23.95;;;12.95;;
45792;SDS011;31495;42.740;22.908;2022-10-23T06:21:39;22.38;;;11.80;;
45792;SDS011;31495;42.740;22.908;2022-10-23T06:22:39;19.90;;;11.73;;
45792;SDS011;31495;42.740;22.908;2022-10-23T06:23:39;19.13;;;11.45;;
45792;SDS011;31495;42.740;22.908;2022-10-23T06:24:39;21.17;;;13.20;;
45792;SDS011;31495;42.740;22.908;2022-10-23T06:25:38;21.77;;;13.25;;
45792;SDS011;31495;42.740;22.908;2022-10-23T06:26:38;20.25;;;12.75;;
45792;SDS011;31495;42.740;22.908;2022-10-23T06:27:37;21.65;;;12.90;;
45792;SDS011;31495;42.740;22.908;2022-10-23T06:28:37;23.48;;;13.10;;